Time;durP1;ratioP1;P1;durP2;ratioP2;P2;SDS_P1;SDS_P2;PMS_P1;PMS_P2;Temp;Humidity;BMP_temperature;BMP_pressure;BME280_temperature;BME280_humidity;BME280_pressure;Samples;Min_cycle;Max_cycle;Signal;HPM_P1;HPM_P2
2021/05/21 00:00:50;;;;;;;4.68;2.75;;;;;;;12.09;98.44;100233.28;5214191;28;20479;-80
2021/05/21 00:03:20;;;;;;;4.43;2.90;;;;;;;12.03;98.37;100223.09;5216822;28;20041;-80
2021/05/21 00:05:50;;;;;;;5.22;2.80;;;;;;;12.00;98.56;100221.47;5213050;28;20029;-79
2021/05/21 00:08:20;;;;;;;6.20;3.20;;;;;;;11.97;96.94;100220.78;5212813;28;20035;-79
2021/05/21 00:10:51;;;;;;;3.58;2.63;;;;;;;11.95;97.59;100212.97;5215558;28;20043;-80
2021/05/21 00:13:21;;;;;;;3.70;2.75;;;;;;;11.93;97.72;100206.97;5212112;28;20030;-79
2021/05/21 00:15:51;;;;;;;3.45;2.47;;;;;;;12.07;96.84;100207.16;5212644;28;20040;-79
2021/05/21 00:18:22;;;;;;;4.65;2.88;;;;;;;12.09;95.81;100202.69;5212732;28;20112;-80
2021/05/21 00:20:52;;;;;;;5.78;2.42;;;;;;;11.94;95.41;100198.19;5214588;28;20094;-79
2021/05/21 00:23:22;;;;;;;6.63;2.60;;;;;;;11.80;96.13;100194.53;5210992;28;20642;-79
2021/05/21 00:25:52;;;;;;;3.35;2.50;;;;;;;11.64;95.94;100188.28;5211586;28;20037;-79
2021/05/21 00:28:23;;;;;;;4.57;2.60;;;;;;;11.62;94.94;100185.72;5195186;28;20032;-79
2021/05/21 00:30:53;;;;;;;3.80;2.35;;;;;;;11.73;94.97;100183.47;5215052;28;20104;-79
2021/05/21 00:33:23;;;;;;;6.40;2.47;;;;;;;11.58;94.18;100185.97;5214605;28;20147;-78
2021/05/21 00:35:54;;;;;;;4.00;2.40;;;;;;;11.44;95.46;100183.09;5209973;28;20040;-80
2021/05/21 00:38:24;;;;;;;4.43;2.47;;;;;;;11.40;95.23;100182.38;5211679;28;20480;-80
2021/05/21 00:40:54;;;;;;;3.97;2.30;;;;;;;11.41;95.24;100165.75;5215203;28;20051;-80
2021/05/21 00:43:25;;;;;;;4.80;2.50;;;;;;;11.39;95.56;100159.75;5209701;28;20030;-79
2021/05/21 00:45:55;;;;;;;4.95;2.30;;;;;;;11.42;94.70;100156.97;5212521;28;20033;-80
2021/05/21 00:48:25;;;;;;;5.60;2.30;;;;;;;11.40;95.71;100156.19;5219857;28;20619;-79
2021/05/21 00:50:56;;;;;;;3.63;2.38;;;;;;;11.47;94.22;100152.38;5213258;28;20025;-79
2021/05/21 00:53:29;;;;;;;4.78;2.30;;;;;;;11.37;94.84;100153.72;5219657;28;20408;-79
2021/05/21 00:56:00;;;;;;;3.35;2.33;;;;;;;11.48;94.51;100155.84;5217418;28;20629;-80
2021/05/21 00:58:30;;;;;;;3.80;2.30;;;;;;;11.43;95.29;100153.44;5221577;28;20031;-79
2021/05/21 01:01:00;;;;;;;4.47;2.47;;;;;;;11.18;96.29;100152.88;5223557;28;20090;-81
2021/05/21 01:03:31;;;;;;;3.35;2.38;;;;;;;11.18;96.68;100149.38;5223059;28;20036;-82
2021/05/21 01:06:01;;;;;;;3.92;2.50;;;;;;;11.19;97.41;100144.09;5221313;28;20044;-81
2021/05/21 01:08:34;;;;;;;3.67;2.38;;;;;;;11.16;96.51;100136.41;5224209;28;20116;-81
2021/05/21 01:11:06;;;;;;;3.42;2.47;;;;;;;11.05;97.88;100127.31;5225638;28;20036;-80
2021/05/21 01:13:37;;;;;;;4.40;2.53;;;;;;;11.08;97.91;100114.94;5220692;28;20026;-80
2021/05/21 01:16:07;;;;;;;4.82;2.35;;;;;;;11.21;96.97;100107.41;5221974;28;20072;-82
2021/05/21 01:18:37;;;;;;;4.82;2.42;;;;;;;11.09;98.61;100106.19;5220906;28;20029;-82
2021/05/21 01:21:08;;;;;;;6.63;2.65;;;;;;;11.25;97.51;100099.34;5220611;28;20056;-81
2021/05/21 01:23:38;;;;;;;5.15;2.60;;;;;;;11.24;97.45;100091.59;5220685;28;20021;-82
2021/05/21 01:26:08;;;;;;;5.13;2.70;;;;;;;11.16;99.21;100076.25;5223365;28;20036;-80
2021/05/21 01:28:39;;;;;;;5.28;2.50;;;;;;;11.15;99.36;100081.53;5226228;28;20040;-80
2021/05/21 01:31:10;;;;;;;3.47;2.47;;;;;;;11.14;100.00;100075.44;5221629;28;20038;-83
2021/05/21 01:33:42;;;;;;;3.65;2.80;;;;;;;11.05;100.00;100070.66;5224245;28;20024;-81
2021/05/21 01:36:12;;;;;;;4.68;2.67;;;;;;;11.18;100.00;100065.69;5254055;23;20090;-76
2021/05/21 01:39:07;;;;;;;5.50;2.85;;;;;;;11.26;100.00;100068.81;5249689;28;20028;-77
2021/05/21 01:41:38;;;;;;;3.00;2.65;;;;;;;11.25;100.00;100059.28;5250382;28;20052;-77
2021/05/21 01:44:10;;;;;;;3.60;2.53;;;;;;;11.33;100.00;100049.28;5251564;28;20035;-77
2021/05/21 01:46:42;;;;;;;3.50;2.80;;;;;;;11.40;100.00;100041.09;5229654;28;20032;-77
2021/05/21 01:49:12;;;;;;;2.90;2.33;;;;;;;11.46;99.19;100046.00;5231268;28;20032;-77
2021/05/21 01:51:58;;;;;;;3.30;2.50;;;;;;;11.43;100.00;100038.31;5229120;28;20013;-77
2021/05/21 01:54:29;;;;;;;;;;;;;;;11.55;99.08;100031.63;5229700;28;20020;-77
2021/05/21 01:57:01;;;;;;;4.50;2.67;;;;;;;11.49;99.05;100034.56;5229225;28;19909;-77
2021/05/21 01:59:31;;;;;;;5.70;2.53;;;;;;;11.52;98.48;100029.19;5230891;28;20489;-76
2021/05/21 02:02:03;;;;;;;4.45;2.33;;;;;;;11.50;98.53;100018.81;5224138;28;20029;-76
2021/05/21 02:04:39;;;;;;;3.53;2.30;;;;;;;11.54;97.68;100012.50;5230705;28;20032;-77
2021/05/21 02:07:15;;;;;;;4.60;2.47;;;;;;;11.43;98.02;100006.91;5228676;28;20809;-77
2021/05/21 02:09:59;;;;;;;3.63;2.25;;;;;;;11.46;96.77;100006.75;5227680;28;20564;-77
2021/05/21 02:12:32;;;;;;;3.35;2.40;;;;;;;11.49;96.52;100005.78;5227134;28;20024;-76
2021/05/21 02:15:07;;;;;;;2.88;2.40;;;;;;;11.38;97.59;99998.44;5229706;28;20379;-77
2021/05/21 02:17:38;;;;;;;;;;;;;;;11.42;96.95;99989.53;5233729;28;20033;-77
2021/05/21 02:20:10;;;;;;;4.68;2.65;;;;;;;11.42;97.05;99986.06;5231097;28;19913;-77
2021/05/21 02:22:41;;;;;;;4.57;2.58;;;;;;;11.27;98.82;99979.78;5230257;28;20021;-76
2021/05/21 02:25:14;;;;;;;3.13;2.17;;;;;;;11.29;98.09;99977.13;5232882;28;20402;-76
2021/05/21 02:27:44;;;;;;;4.32;2.25;;;;;;;11.32;97.33;99967.38;5233023;28;20122;-77
2021/05/21 02:30:15;;;;;;;3.42;2.40;;;;;;;11.18;98.43;99961.94;5233168;28;20079;-77
2021/05/21 02:32:45;;;;;;;3.25;2.50;;;;;;;11.07;99.63;99961.59;5231928;28;20653;-77
2021/05/21 02:35:16;;;;;;;4.97;2.30;;;;;;;11.15;99.41;99959.47;5232591;28;20020;-77
2021/05/21 02:37:47;;;;;;;3.08;2.20;;;;;;;11.08;98.85;99957.22;5223861;28;20021;-77
2021/05/21 02:40:17;;;;;;;4.40;2.28;;;;;;;11.11;98.18;99959.69;5232801;28;20031;-76
2021/05/21 02:42:47;;;;;;;4.20;2.42;;;;;;;10.98;98.10;99947.25;5229973;28;20037;-76
2021/05/21 02:45:18;;;;;;;2.40;2.10;;;;;;;10.99;97.70;99938.50;5231413;28;20036;-76
2021/05/21 02:47:48;;;;;;;3.33;2.00;;;;;;;10.99;97.87;99941.13;5228952;28;20036;-77
2021/05/21 02:50:18;;;;;;;4.78;2.05;;;;;;;11.03;96.99;99931.28;5230832;28;20016;-76
2021/05/21 02:52:49;;;;;;;3.97;1.80;;;;;;;11.02;96.30;99926.97;5228853;28;20016;-76
2021/05/21 02:55:19;;;;;;;2.75;1.92;;;;;;;10.77;97.32;99927.34;5212238;28;20505;-77
2021/05/21 02:57:49;;;;;;;4.35;1.98;;;;;;;10.75;98.09;99919.59;5226911;28;20686;-79
2021/05/21 03:00:20;;;;;;;3.53;1.90;;;;;;;10.71;97.19;99914.56;5232436;28;20059;-77
2021/05/21 03:02:50;;;;;;;5.93;2.15;;;;;;;10.58;97.35;99910.81;5214283;28;20112;-76
2021/05/21 03:05:22;;;;;;;5.78;2.10;;;;;;;10.54;97.69;99910.09;5223921;28;20591;-77
2021/05/21 03:07:54;;;;;;;4.45;1.90;;;;;;;10.44;97.73;99908.00;5217252;28;20031;-77
2021/05/21 03:10:26;;;;;;;3.03;1.80;;;;;;;10.57;96.43;99907.38;5211858;28;20112;-77
2021/05/21 03:12:56;;;;;;;6.97;1.90;;;;;;;10.54;95.78;99896.22;5219198;28;20074;-77
2021/05/21 03:15:28;;;;;;;4.45;1.60;;;;;;;10.61;96.54;99900.22;5229854;28;20020;-77
2021/05/21 03:18:02;;;;;;;4.80;1.70;;;;;;;10.71;95.93;99898.91;5226894;28;20023;-77
2021/05/21 03:20:33;;;;;;;3.90;1.50;;;;;;;10.86;95.45;99890.34;5228597;28;20017;-77
2021/05/21 03:23:03;;;;;;;4.95;1.80;;;;;;;11.02;95.19;99881.66;5226872;28;20039;-76
2021/05/21 03:25:34;;;;;;;2.72;1.30;;;;;;;11.00;96.34;99874.84;5231176;28;20025;-76
2021/05/21 03:28:04;;;;;;;2.72;1.40;;;;;;;11.14;95.76;99874.06;5234414;28;20040;-77
2021/05/21 03:30:35;;;;;;;3.40;1.50;;;;;;;11.08;96.59;99865.69;5232282;28;20027;-76
2021/05/21 03:33:06;;;;;;;2.75;1.50;;;;;;;11.06;96.60;99865.75;5234268;28;20032;-76
2021/05/21 03:35:38;;;;;;;5.35;1.77;;;;;;;11.23;96.09;99859.69;5211407;28;20020;-77
2021/05/21 03:38:09;;;;;;;2.83;1.42;;;;;;;11.12;97.40;99865.44;5233016;28;20033;-76
2021/05/21 03:40:41;;;;;;;2.63;1.40;;;;;;;11.18;96.81;99854.72;5231274;28;20032;-77
2021/05/21 03:43:11;;;;;;;3.15;1.63;;;;;;;11.20;97.19;99855.47;5221315;28;20017;-77
2021/05/21 03:45:42;;;;;;;3.08;1.55;;;;;;;11.46;95.94;99851.56;5233169;28;20418;-76
2021/05/21 03:48:12;;;;;;;3.55;1.52;;;;;;;11.40;96.41;99850.09;5232666;28;20036;-77
2021/05/21 03:50:43;;;;;;;2.80;1.42;;;;;;;11.42;96.12;99850.84;5232348;28;20027;-76
2021/05/21 03:53:15;;;;;;;4.72;1.55;;;;;;;11.41;96.99;99841.31;5231451;28;20541;-76
2021/05/21 03:55:45;;;;;;;3.67;1.58;;;;;;;11.43;96.11;99836.84;5231637;28;20086;-77
2021/05/21 03:58:16;;;;;;;5.95;1.80;;;;;;;11.47;97.00;99835.75;5232134;28;20428;-76
2021/05/21 04:00:46;;;;;;;3.83;1.75;;;;;;;11.62;96.35;99823.72;5232679;28;20667;-76
2021/05/21 04:03:16;;;;;;;3.75;1.60;;;;;;;11.58;96.41;99832.66;5231936;28;20056;-76
2021/05/21 04:05:47;;;;;;;4.22;1.50;;;;;;;11.74;96.08;99828.28;5230492;28;20547;-76
2021/05/21 04:08:17;;;;;;;3.28;1.60;;;;;;;11.81;97.20;99830.50;5225220;28;20029;-76
2021/05/21 04:10:47;;;;;;;3.28;1.60;;;;;;;11.77;96.09;99823.75;5219387;28;20033;-76
2021/05/21 04:13:18;;;;;;;3.22;1.40;;;;;;;11.74;97.78;99823.91;5224707;28;20037;-77
2021/05/21 04:15:48;;;;;;;4.30;1.65;;;;;;;11.77;96.54;99815.91;5227004;28;20060;-77
2021/05/21 04:18:18;;;;;;;3.53;1.45;;;;;;;11.86;96.14;99806.72;5226035;28;20097;-76
2021/05/21 04:20:49;;;;;;;2.55;1.42;;;;;;;12.03;95.59;99814.53;5227522;28;20032;-77
2021/05/21 04:23:19;;;;;;;3.17;1.33;;;;;;;12.04;94.75;99813.59;5226457;28;20104;-76
2021/05/21 04:25:51;;;;;;;3.15;1.50;;;;;;;12.30;92.97;99800.78;5212695;28;20532;-76
2021/05/21 04:28:21;;;;;;;3.60;1.25;;;;;;;12.50;91.27;99802.31;5227452;28;20028;-77
2021/05/21 04:30:52;;;;;;;2.72;1.30;;;;;;;12.61;90.47;99797.31;5226892;28;20093;-76
2021/05/21 04:33:22;;;;;;;4.32;1.30;;;;;;;12.74;88.77;99793.06;5226800;28;20029;-77
2021/05/21 04:35:52;;;;;;;3.58;1.10;;;;;;;13.08;87.73;99791.06;5225326;28;20021;-76
2021/05/21 04:38:23;;;;;;;3.53;1.17;;;;;;;13.13;86.95;99781.16;5226919;28;20025;-77
2021/05/21 04:40:53;;;;;;;2.47;1.08;;;;;;;14.70;82.05;99773.91;5230058;28;20025;-75
2021/05/21 04:43:25;;;;;;;2.33;1.00;;;;;;;17.05;73.36;99765.91;5233224;28;20036;-77
2021/05/21 04:45:56;;;;;;;1.67;0.90;;;;;;;18.28;68.47;99758.03;5230381;28;20029;-77
2021/05/21 04:48:27;;;;;;;3.28;0.80;;;;;;;17.42;69.18;99764.84;5234121;28;20027;-76
2021/05/21 04:50:57;;;;;;;3.10;0.90;;;;;;;16.41;73.53;99757.53;5229496;28;20048;-77
2021/05/21 04:53:28;;;;;;;2.70;1.08;;;;;;;15.87;75.23;99768.50;5230947;28;20024;-76
2021/05/21 04:55:58;;;;;;;3.63;1.10;;;;;;;15.31;78.22;99764.50;5226802;28;20017;-77
2021/05/21 04:58:29;;;;;;;3.55;1.08;;;;;;;14.88;81.33;99760.34;5216534;28;20039;-77
2021/05/21 05:00:59;;;;;;;3.50;1.10;;;;;;;14.73;81.89;99757.91;5229670;28;20762;-76
2021/05/21 05:03:30;;;;;;;1.55;0.90;;;;;;;15.01;80.55;99758.59;5230886;28;20032;-77
2021/05/21 05:06:00;;;;;;;3.00;1.00;;;;;;;14.70;81.33;99757.25;5230525;28;20422;-77
2021/05/21 05:08:31;;;;;;;4.10;0.90;;;;;;;14.80;80.52;99751.28;5230597;28;20112;-77
2021/05/21 05:11:01;;;;;;;3.45;1.20;;;;;;;14.43;83.34;99753.78;5233118;28;20467;-76
2021/05/21 05:13:31;;;;;;;3.60;1.10;;;;;;;14.40;82.67;99743.47;5229891;28;20364;-77
2021/05/21 05:16:02;;;;;;;1.48;0.90;;;;;;;14.67;84.16;99731.16;5233771;28;20028;-76
2021/05/21 05:18:32;;;;;;;3.53;1.10;;;;;;;14.68;82.19;99728.44;5231056;28;20021;-77
2021/05/21 05:21:05;;;;;;;6.28;1.20;;;;;;;14.79;82.64;99725.91;5232653;28;20036;-76
2021/05/21 05:23:35;;;;;;;2.00;1.00;;;;;;;14.93;83.16;99725.84;5210637;28;20024;-77
2021/05/21 05:26:06;;;;;;;1.90;1.00;;;;;;;14.97;82.59;99722.06;5231545;28;20035;-77
2021/05/21 05:28:36;;;;;;;4.15;1.10;;;;;;;15.56;79.03;99714.44;5231068;28;20037;-77
2021/05/21 05:31:06;;;;;;;1.85;0.82;;;;;;;15.94;79.17;99717.91;5232876;28;20077;-77
2021/05/21 05:33:36;;;;;;;2.88;0.90;;;;;;;15.71;79.98;99712.56;5234674;28;20059;-77
2021/05/21 05:36:08;;;;;;;2.47;1.00;;;;;;;15.63;79.82;99707.81;5231286;28;20123;-77
2021/05/21 05:38:38;;;;;;;4.78;0.93;;;;;;;16.04;78.92;99700.47;5234761;28;20536;-77
2021/05/21 05:41:09;;;;;;;2.65;1.23;;;;;;;16.03;78.90;99695.31;5234680;28;20029;-77
2021/05/21 05:43:39;;;;;;;2.15;0.93;;;;;;;16.22;78.94;99700.94;5236097;28;20031;-76
2021/05/21 05:46:10;;;;;;;2.45;0.80;;;;;;;15.81;80.58;99697.78;5218051;28;20039;-77
2021/05/21 05:48:40;;;;;;;3.53;1.13;;;;;;;16.01;80.94;99691.94;5237065;28;20025;-76
2021/05/21 05:51:10;;;;;;;2.50;0.90;;;;;;;15.70;82.86;99684.53;5235159;28;20033;-77
2021/05/21 05:53:43;;;;;;;3.78;1.05;;;;;;;16.03;81.35;99682.97;5234802;28;20021;-77
2021/05/21 05:56:14;;;;;;;3.53;0.90;;;;;;;15.92;75.29;99682.03;5232805;28;20032;-77
2021/05/21 05:58:44;;;;;;;4.70;0.85;;;;;;;16.37;73.56;99673.50;5233528;28;20090;-77
2021/05/21 06:01:14;;;;;;;4.72;0.60;;;;;;;16.42;72.66;99669.53;5227264;28;20402;-77
2021/05/21 06:03:45;;;;;;;4.70;0.70;;;;;;;16.19;71.15;99678.25;5224346;28;20082;-78
2021/05/21 06:06:15;;;;;;;2.25;0.63;;;;;;;16.47;70.10;99675.34;5235791;28;20104;-77
2021/05/21 06:08:45;;;;;;;3.60;0.90;;;;;;;16.03;71.96;99666.31;5234929;28;20371;-77
2021/05/21 06:11:16;;;;;;;1.97;0.87;;;;;;;16.38;70.90;99667.25;5231544;28;20036;-77
2021/05/21 06:13:47;;;;;;;1.83;0.75;;;;;;;16.34;71.69;99671.88;5237075;28;20275;-77
2021/05/21 06:16:17;;;;;;;2.30;0.80;;;;;;;16.02;72.43;99662.81;5234778;28;21396;-78
2021/05/21 06:18:48;;;;;;;1.90;0.80;;;;;;;15.96;72.07;99663.28;5238792;28;20406;-77
2021/05/21 06:21:18;;;;;;;3.83;0.85;;;;;;;15.96;71.24;99655.38;5236108;28;20191;-76
2021/05/21 06:23:49;;;;;;;3.40;0.80;;;;;;;16.49;71.30;99651.47;5216354;28;20032;-77
2021/05/21 06:28:55;;;;;;;2.63;0.77;;;;;;;16.51;70.73;99652.19;5236890;28;20595;-77
2021/05/21 06:31:26;;;;;;;2.67;0.82;;;;;;;16.81;70.07;99650.75;5214960;28;20025;-77
2021/05/21 06:33:56;;;;;;;5.28;0.90;;;;;;;16.75;69.11;99648.56;5235667;28;20024;-77
2021/05/21 06:36:26;;;;;;;2.47;0.90;;;;;;;16.69;70.02;99653.50;5230082;28;20437;-77
2021/05/21 06:38:57;;;;;;;3.07;0.73;;;;;;;16.83;69.07;99638.28;5238126;28;20055;-77
2021/05/21 06:41:27;;;;;;;2.60;0.90;;;;;;;16.79;69.05;99648.22;5232497;28;20349;-77
2021/05/21 06:43:57;;;;;;;5.37;1.10;;;;;;;16.59;70.06;99645.38;5236803;28;20027;-77
2021/05/21 06:46:28;;;;;;;2.53;0.83;;;;;;;16.76;68.41;99641.50;5232367;28;20275;-77
2021/05/21 06:48:58;;;;;;;4.30;0.60;;;;;;;16.61;69.28;99635.59;5232557;28;20306;-77
2021/05/21 06:51:28;;;;;;;3.17;0.80;;;;;;;16.55;69.36;99640.47;5214116;28;20020;-77
2021/05/21 06:53:59;;;;;;;1.63;0.68;;;;;;;16.65;69.38;99637.03;5232665;28;20020;-77
2021/05/21 06:56:31;;;;;;;4.53;0.90;;;;;;;16.83;69.19;99630.38;5233667;28;20017;-77
2021/05/21 06:59:05;;;;;;;4.68;0.95;;;;;;;16.67;69.80;99627.19;5217912;28;20637;-77
2021/05/21 07:01:35;;;;;;;3.75;0.82;;;;;;;16.98;68.09;99616.00;5215052;28;20037;-77
2021/05/21 07:04:06;;;;;;;4.28;0.93;;;;;;;17.33;68.93;99619.38;5233683;28;20120;-77
2021/05/21 07:06:36;;;;;;;2.97;0.75;;;;;;;17.41;68.17;99620.50;5230118;28;20028;-77
2021/05/21 07:09:06;;;;;;;3.57;0.80;;;;;;;17.53;67.70;99606.34;5232590;28;20109;-77
2021/05/21 07:11:37;;;;;;;2.20;0.70;;;;;;;17.81;66.33;99612.91;5234492;28;20366;-77
2021/05/21 07:14:10;;;;;;;2.92;0.80;;;;;;;17.98;67.13;99609.75;5233354;28;20275;-77
2021/05/21 07:16:41;;;;;;;2.30;0.88;;;;;;;18.00;65.46;99599.88;5234428;28;20616;-77
2021/05/21 07:19:14;;;;;;;2.70;0.70;;;;;;;19.04;63.33;99592.75;5233638;28;20064;-77
2021/05/21 07:21:46;;;;;;;4.38;1.05;;;;;;;19.10;62.17;99598.38;5234342;28;20032;-78
2021/05/21 07:24:16;;;;;;;2.33;0.90;;;;;;;18.42;64.78;99599.03;5229422;28;20064;-78
2021/05/21 07:26:46;;;;;;;2.33;0.83;;;;;;;19.97;63.04;99584.47;5231408;28;20025;-78
2021/05/21 07:29:17;;;;;;;4.15;0.82;;;;;;;20.02;59.99;99577.81;5234080;28;20341;-78
2021/05/21 07:31:47;;;;;;;5.68;0.80;;;;;;;20.41;59.76;99579.50;5232767;28;20055;-77
2021/05/21 07:34:17;;;;;;;6.97;0.77;;;;;;;21.71;56.86;99552.88;5230529;28;20044;-77
2021/05/21 07:36:48;;;;;;;2.83;0.82;;;;;;;23.00;54.24;99557.34;5268105;22;20053;-80
2021/05/21 07:39:18;;;;;;;3.67;0.70;;;;;;;23.17;53.87;99559.16;5237954;28;20124;-79
2021/05/21 07:41:48;;;;;;;3.03;0.70;;;;;;;23.78;55.12;99550.91;5268459;28;20165;-80
2021/05/21 07:44:19;;;;;;;5.05;0.80;;;;;;;22.46;55.88;99551.47;5257221;28;20028;-79
2021/05/21 07:46:50;;;;;;;2.97;0.75;;;;;;;22.16;55.41;99553.66;5244295;28;20059;-79
2021/05/21 07:49:25;;;;;;;2.70;0.70;;;;;;;24.60;53.24;99552.59;5259336;28;20050;-79
2021/05/21 07:51:55;;;;;;;2.47;0.70;;;;;;;22.75;53.27;99550.22;5260112;28;20024;-78
2021/05/21 07:54:25;;;;;;;2.58;0.80;;;;;;;22.91;53.73;99547.66;5238851;28;20130;-79
2021/05/21 07:56:56;;;;;;;5.32;1.00;;;;;;;22.12;54.73;99549.63;5255905;28;20084;-80
2021/05/21 07:59:26;;;;;;;3.07;0.90;;;;;;;23.60;51.95;99551.03;5246599;28;20074;-80
2021/05/21 08:01:56;;;;;;;4.78;0.77;;;;;;;22.77;53.22;99555.38;5245860;28;20290;-80
2021/05/21 08:04:26;;;;;;;4.03;0.70;;;;;;;22.96;52.28;99544.50;5217178;28;20049;-79
2021/05/21 08:06:57;;;;;;;4.83;0.80;;;;;;;24.38;50.82;99525.69;5211295;28;20505;-79
2021/05/21 08:09:28;;;;;;;4.57;0.80;;;;;;;25.18;48.75;99518.38;5229258;28;20287;-80
2021/05/21 08:11:58;;;;;;;4.72;1.00;;;;;;;24.97;48.84;99523.47;5228413;28;20036;-80
2021/05/21 08:14:28;;;;;;;3.03;1.00;;;;;;;25.62;48.73;99514.19;5247024;28;20024;-80
2021/05/21 08:16:59;;;;;;;4.10;0.80;;;;;;;26.69;46.17;99513.97;5238821;28;20044;-80
2021/05/21 08:19:29;;;;;;;4.90;1.08;;;;;;;27.15;46.64;99513.69;5212793;28;20346;-80
2021/05/21 08:21:59;;;;;;;5.70;0.97;;;;;;;27.14;45.21;99512.00;5235860;28;20463;-80
2021/05/21 08:24:30;;;;;;;4.00;1.10;;;;;;;25.82;46.78;99515.44;5227257;28;20279;-81
2021/05/21 08:27:00;;;;;;;4.60;1.00;;;;;;;25.56;45.40;99514.91;5207732;28;20308;-80
2021/05/21 08:29:33;;;;;;;4.35;0.80;;;;;;;24.27;48.93;99521.50;5220633;28;20032;-80
2021/05/21 08:32:03;;;;;;;3.72;0.60;;;;;;;23.13;49.63;99522.28;5228563;28;20069;-79
2021/05/21 08:34:34;;;;;;;3.40;0.82;;;;;;;22.03;52.17;99521.25;5238884;28;20020;-79
2021/05/21 08:37:05;;;;;;;2.45;0.93;;;;;;;20.78;54.38;99525.50;5235584;28;20028;-79
2021/05/21 08:39:37;;;;;;;6.93;1.10;;;;;;;23.04;51.77;99517.91;5227610;28;20043;-79
2021/05/21 08:42:09;;;;;;;5.20;0.90;;;;;;;25.34;48.44;99511.16;5227444;28;20443;-79
2021/05/21 08:44:45;;;;;;;4.07;1.08;;;;;;;25.92;46.28;99508.03;5245829;28;20032;-79
2021/05/21 08:47:16;;;;;;;7.15;1.27;;;;;;;25.46;45.89;99508.94;5246044;28;20466;-79
2021/05/21 08:49:46;;;;;;;4.45;1.00;;;;;;;25.57;46.93;99504.03;5228108;28;20048;-80
2021/05/21 08:52:17;;;;;;;4.25;1.15;;;;;;;25.66;45.25;99502.16;5225358;28;20040;-80
2021/05/21 08:54:47;;;;;;;2.75;1.02;;;;;;;26.31;45.40;99490.03;5214500;28;20051;-80
2021/05/21 08:57:19;;;;;;;5.50;1.30;;;;;;;26.98;47.92;99493.41;5236278;28;20033;-81
2021/05/21 08:59:49;;;;;;;5.88;1.35;;;;;;;27.36;46.33;99494.13;5246400;28;20763;-80
2021/05/21 09:02:27;;;;;;;4.67;1.33;;;;;;;27.35;45.66;99487.97;5245000;28;20028;-80
2021/05/21 09:05:00;;;;;;;6.97;1.38;;;;;;;27.17;47.08;99486.66;5243458;28;20316;-80
2021/05/21 09:07:33;;;;;;;5.93;1.20;;;;;;;26.68;45.75;99490.03;5239809;28;20115;-80
2021/05/21 09:10:16;;;;;;;3.83;1.00;;;;;;;27.32;44.91;99477.59;5249248;28;20060;-80
2021/05/21 09:12:49;;;;;;;5.32;1.17;;;;;;;24.79;46.62;99480.06;5231527;28;20413;-80
2021/05/21 09:15:25;;;;;;;4.53;1.15;;;;;;;25.16;49.41;99473.06;5231417;28;20033;-80
2021/05/21 09:17:58;;;;;;;3.65;1.05;;;;;;;23.31;51.45;99483.91;5249204;28;20023;-79
2021/05/21 09:20:38;;;;;;;5.70;1.10;;;;;;;23.54;50.09;99474.28;5230429;28;20393;-79
2021/05/21 09:23:12;;;;;;;4.03;1.10;;;;;;;22.12;51.20;99483.09;5230992;28;20078;-79
2021/05/21 09:25:44;;;;;;;6.40;1.30;;;;;;;22.22;51.28;99473.19;5223565;28;20555;-79
2021/05/21 09:28:31;;;;;;;5.00;1.13;;;;;;;21.41;53.24;99476.03;5248753;28;20116;-79
2021/05/21 09:31:05;;;;;;;2.70;1.15;;;;;;;20.83;54.78;99475.47;5248093;28;20428;-79
2021/05/21 09:33:38;;;;;;;4.28;1.00;;;;;;;20.23;54.25;99487.44;5227618;28;20090;-78
2021/05/21 09:36:09;;;;;;;5.53;1.27;;;;;;;20.85;54.00;99470.00;5228151;28;20563;-79
2021/05/21 09:38:51;;;;;;;4.55;0.93;;;;;;;22.34;53.03;99474.59;5245418;28;20047;-79
2021/05/21 09:41:22;;;;;;;3.65;0.70;;;;;;;22.63;54.06;99472.50;5247279;28;20028;-79
2021/05/21 09:43:55;;;;;;;2.47;0.80;;;;;;;21.98;53.94;99470.31;5230715;28;20025;-79
2021/05/21 09:46:40;;;;;;;4.70;0.90;;;;;;;21.22;56.46;99455.69;5248919;28;20102;-78
2021/05/21 09:49:33;;;;;;;1.83;0.88;;;;;;;22.74;53.77;99452.63;5248822;28;20032;-79
2021/05/21 09:52:06;;;;;;;4.97;0.98;;;;;;;21.83;54.25;99451.41;5228185;28;20059;-79
2021/05/21 09:54:56;;;;;;;4.78;0.90;;;;;;;21.38;54.22;99455.06;5227854;28;20025;-80
2021/05/21 09:57:34;;;;;;;3.15;0.85;;;;;;;20.54;56.71;99449.97;5250196;28;20391;-79
2021/05/21 10:00:10;;;;;;;4.05;1.00;;;;;;;19.86;59.72;99458.13;5250563;28;20055;-79
2021/05/21 10:02:41;;;;;;;;;;;;;;;19.70;58.66;99460.50;5249508;28;20024;-78
2021/05/21 10:05:11;;;;;;;4.55;0.90;;;;;;;19.58;58.04;99451.00;5220493;28;19988;-79
2021/05/21 10:07:42;;;;;;;5.20;0.98;;;;;;;19.66;59.55;99458.25;5224020;28;20044;-79
2021/05/21 10:10:14;;;;;;;3.63;1.02;;;;;;;20.00;59.35;99447.09;5248097;28;20028;-79
2021/05/21 10:12:44;;;;;;;4.18;0.73;;;;;;;19.99;57.86;99450.72;5229267;28;20036;-79
2021/05/21 10:15:15;;;;;;;5.00;1.10;;;;;;;20.19;57.84;99447.13;5247663;28;20029;-79
2021/05/21 10:17:49;;;;;;;3.00;0.70;;;;;;;19.51;60.45;99444.59;5246870;28;20098;-80
2021/05/21 10:20:21;;;;;;;8.75;0.90;;;;;;;19.21;59.84;99434.06;5246674;28;20032;-79
2021/05/21 10:22:52;;;;;;;3.28;0.90;;;;;;;19.90;58.95;99440.97;5241565;28;20060;-79
2021/05/21 10:25:26;;;;;;;5.82;0.98;;;;;;;19.79;56.79;99422.53;5244461;28;20077;-79
2021/05/21 10:28:00;;;;;;;3.78;0.95;;;;;;;19.56;55.62;99434.38;5227285;28;20024;-79
2021/05/21 10:30:34;;;;;;;3.70;0.65;;;;;;;19.76;57.39;99425.47;5220341;28;20020;-79
2021/05/21 10:33:35;;;;;;;4.35;0.70;;;;;;;19.38;58.75;99429.91;5246384;28;20482;-78
2021/05/21 10:36:15;;;;;;;3.63;0.77;;;;;;;19.62;57.33;99428.53;5213583;28;20043;-79
2021/05/21 10:39:18;;;;;;;2.70;0.73;;;;;;;20.09;57.63;99448.94;5246579;28;20497;-79
2021/05/21 10:41:50;;;;;;;4.65;0.60;;;;;;;20.28;53.97;99434.81;5243261;28;20032;-79
2021/05/21 10:44:27;;;;;;;2.00;0.70;;;;;;;20.44;55.42;99430.56;5217656;28;20102;-79
2021/05/21 10:47:16;;;;;;;3.63;0.98;;;;;;;20.89;54.80;99424.41;5246635;28;20363;-79
2021/05/21 10:49:52;;;;;;;6.00;0.85;;;;;;;20.78;55.25;99418.41;5244078;28;20073;-78
2021/05/21 10:52:48;;;;;;;3.78;0.70;;;;;;;20.37;55.21;99418.00;5243072;28;20027;-78
2021/05/21 10:55:37;;;;;;;3.03;0.80;;;;;;;20.78;57.70;99406.00;5221898;28;20659;-79
2021/05/21 10:58:07;;;;;;;1.35;0.45;;;;;;;20.82;55.72;99417.97;5228055;28;20482;-80
2021/05/21 11:00:39;;;;;;;6.90;0.80;;;;;;;20.85;58.37;99399.13;5220453;28;20035;-80
2021/05/21 11:03:09;;;;;;;3.55;0.65;;;;;;;21.39;57.44;99404.38;5241000;28;20040;-78
2021/05/21 11:05:40;;;;;;;5.97;0.75;;;;;;;21.62;57.46;99410.97;5239348;28;20478;-78
2021/05/21 11:08:13;;;;;;;3.20;0.90;;;;;;;21.85;52.11;99417.50;5239125;28;20028;-78
2021/05/21 11:10:45;;;;;;;2.83;0.57;;;;;;;21.67;54.76;99414.00;5243745;28;20589;-79
2021/05/21 11:13:17;;;;;;;2.08;0.60;;;;;;;21.26;53.93;99411.06;5240690;28;20025;-79
2021/05/21 11:15:51;;;;;;;4.90;0.70;;;;;;;21.22;53.32;99417.66;5245395;28;20612;-79
2021/05/21 11:18:21;;;;;;;6.47;0.85;;;;;;;20.64;55.83;99407.44;5228454;28;20051;-79
2021/05/21 11:20:56;;;;;;;3.78;0.70;;;;;;;20.80;57.84;99405.81;5228122;28;20059;-80
2021/05/21 11:23:33;;;;;;;4.57;0.75;;;;;;;20.28;57.59;99414.41;5240482;28;20020;-79
2021/05/21 11:26:26;;;;;;;2.80;0.60;;;;;;;19.80;55.23;99413.59;5221284;28;20139;-78
2021/05/21 11:29:00;;;;;;;4.05;0.73;;;;;;;20.51;56.70;99410.41;5226778;28;20051;-79
2021/05/21 11:31:33;;;;;;;3.03;0.80;;;;;;;21.24;nan;99410.38;5220579;28;20016;-80
2021/05/21 11:34:09;;;;;;;5.35;0.88;;;;;;;20.64;54.85;99392.34;5218896;28;20043;-79
2021/05/21 11:36:40;;;;;;;8.00;0.85;;;;;;;20.37;56.21;99405.59;5237400;28;20621;-78
2021/05/21 11:39:10;;;;;;;4.20;0.82;;;;;;;20.13;57.25;99399.91;5243906;28;20031;-79
2021/05/21 11:41:44;;;;;;;6.87;0.93;;;;;;;19.97;56.99;99410.22;5225052;28;20032;-79
2021/05/21 11:44:15;;;;;;;3.35;0.90;;;;;;;19.96;58.88;99403.25;5243819;28;20753;-78
2021/05/21 11:46:46;;;;;;;2.60;0.50;;;;;;;20.02;57.84;99396.56;5244098;28;20105;-78
2021/05/21 11:49:19;;;;;;;4.15;0.80;;;;;;;20.24;58.30;99390.94;5242546;28;20481;-78
2021/05/21 11:51:54;;;;;;;3.45;0.80;;;;;;;20.76;56.82;99378.72;5243465;28;20115;-79
2021/05/21 11:54:26;;;;;;;3.80;0.80;;;;;;;20.49;55.99;99377.84;5224496;28;20032;-78
2021/05/21 11:56:58;;;;;;;4.45;0.63;;;;;;;20.44;54.84;99372.16;5244850;28;20539;-78